sensor_id;sensor_type;location;lat;lon;timestamp;pressure;altitude;pressure_sealevel;temperature;humidity
29907;BME280;16776;50.958;10.994;2024-01-06T00:02:00;97222.81;;;3.56;100.00
29907;BME280;16776;50.958;10.994;2024-01-06T00:04:27;97221.06;;;3.58;100.00
29907;BME280;16776;50.958;10.994;2024-01-06T00:06:54;97215.97;;;3.58;100.00
29907;BME280;16776;50.958;10.994;2024-01-06T00:09:20;97215.97;;;3.58;100.00
29907;BME280;16776;50.958;10.994;2024-01-06T00:11:48;97213.41;;;3.60;100.00
29907;BME280;16776;50.958;10.994;2024-01-06T00:14:15;97212.63;;;3.58;100.00
29907;BME280;16776;50.958;10.994;2024-01-06T00:16:41;97210.06;;;3.58;100.00
29907;BME280;16776;50.958;10.994;2024-01-06T00:19:08;97221.06;;;3.58;100.00
29907;BME280;16776;50.958;10.994;2024-01-06T00:21:34;97221.97;;;3.57;100.00
29907;BME280;16776;50.958;10.994;2024-01-06T00:24:01;97211.72;;;3.59;100.00
29907;BME280;16776;50.958;10.994;2024-01-06T00:26:28;97220.25;;;3.58;100.00
29907;BME280;16776;50.958;10.994;2024-01-06T00:28:56;97221.13;;;3.57;100.00
29907;BME280;16776;50.958;10.994;2024-01-06T00:31:22;97214.47;;;3.51;99.80
29907;BME280;16776;50.958;10.994;2024-01-06T00:33:49;97211.13;;;3.48;100.00
29907;BME280;16776;50.958;10.994;2024-01-06T00:36:15;97217.16;;;3.43;100.00
29907;BME280;16776;50.958;10.994;2024-01-06T00:38:42;97221.50;;;3.38;99.88
29907;BME280;16776;50.958;10.994;2024-01-06T00:41:08;97217.34;;;3.33;99.75
29907;BME280;16776;50.958;10.994;2024-01-06T00:43:35;97217.44;;;3.28;100.00
29907;BME280;16776;50.958;10.994;2024-01-06T00:46:03;97218.31;;;3.26;100.00
29907;BME280;16776;50.958;10.994;2024-01-06T00:48:29;97223.59;;;3.18;99.78
29907;BME280;16776;50.958;10.994;2024-01-06T00:50:56;97221.94;;;3.14;100.00
29907;BME280;16776;50.958;10.994;2024-01-06T00:53:23;97233.91;;;3.09;100.00
29907;BME280;16776;50.958;10.994;2024-01-06T00:55:49;97230.63;;;3.05;100.00
29907;BME280;16776;50.958;10.994;2024-01-06T00:58:16;97229.03;;;3.00;100.00
29907;BME280;16776;50.958;10.994;2024-01-06T01:00:42;97238.41;;;2.96;100.00
29907;BME280;16776;50.958;10.994;2024-01-06T01:03:10;97229.13;;;2.94;100.00
29907;BME280;16776;50.958;10.994;2024-01-06T01:05:37;97233.44;;;2.89;100.00
29907;BME280;16776;50.958;10.994;2024-01-06T01:08:04;97227.59;;;2.85;100.00
29907;BME280;16776;50.958;10.994;2024-01-06T01:10:31;97227.63;;;2.82;100.00
29907;BME280;16776;50.958;10.994;2024-01-06T01:12:57;97233.63;;;2.80;100.00
29907;BME280;16776;50.958;10.994;2024-01-06T01:15:24;97237.06;;;2.77;100.00
29907;BME280;16776;50.958;10.994;2024-01-06T01:17:51;97239.69;;;2.74;100.00
29907;BME280;16776;50.958;10.994;2024-01-06T01:20:18;97240.53;;;2.73;100.00
29907;BME280;16776;50.958;10.994;2024-01-06T01:22:45;97234.66;;;2.70;100.00
29907;BME280;16776;50.958;10.994;2024-01-06T01:25:12;97245.69;;;2.69;100.00
29907;BME280;16776;50.958;10.994;2024-01-06T01:27:38;97244.03;;;2.68;100.00
29907;BME280;16776;50.958;10.994;2024-01-06T01:30:06;97239.81;;;2.67;100.00
29907;BME280;16776;50.958;10.994;2024-01-06T01:32:33;97240.66;;;2.65;100.00
29907;BME280;16776;50.958;10.994;2024-01-06T01:34:59;97250.84;;;2.64;100.00
29907;BME280;16776;50.958;10.994;2024-01-06T01:37:27;97253.34;;;2.67;100.00
29907;BME280;16776;50.958;10.994;2024-01-06T01:39:54;97257.59;;;2.67;100.00
29907;BME280;16776;50.958;10.994;2024-01-06T01:42:20;97258.44;;;2.67;100.00
29907;BME280;16776;50.958;10.994;2024-01-06T01:44:47;97270.28;;;2.68;100.00
29907;BME280;16776;50.958;10.994;2024-01-06T01:47:13;97279.53;;;2.71;100.00
29907;BME280;16776;50.958;10.994;2024-01-06T01:49:43;97284.59;;;2.72;100.00
29907;BME280;16776;50.958;10.994;2024-01-06T01:52:10;97276.91;;;2.75;100.00
29907;BME280;16776;50.958;10.994;2024-01-06T01:54:38;97274.31;;;2.80;100.00
29907;BME280;16776;50.958;10.994;2024-01-06T01:57:05;97281.94;;;2.80;100.00
29907;BME280;16776;50.958;10.994;2024-01-06T01:59:31;97272.56;;;2.82;100.00
29907;BME280;16776;50.958;10.994;2024-01-06T02:01:58;97264.94;;;2.82;100.00
29907;BME280;16776;50.958;10.994;2024-01-06T02:04:25;97266.63;;;2.81;100.00
29907;BME280;16776;50.958;10.994;2024-01-06T02:06:52;97274.25;;;2.81;100.00
29907;BME280;16776;50.958;10.994;2024-01-06T02:09:18;97276.00;;;2.81;100.00
29907;BME280;16776;50.958;10.994;2024-01-06T02:11:46;97281.03;;;2.82;100.00
29907;BME280;16776;50.958;10.994;2024-01-06T02:14:13;97282.72;;;2.82;100.00
29907;BME280;16776;50.958;10.994;2024-01-06T02:16:39;97282.72;;;2.82;100.00
29907;BME280;16776;50.958;10.994;2024-01-06T02:19:07;97282.72;;;2.83;100.00
29907;BME280;16776;50.958;10.994;2024-01-06T02:21:41;97281.84;;;2.86;100.00
29907;BME280;16776;50.958;10.994;2024-01-06T02:24:10;97287.78;;;2.85;100.00
29907;BME280;16776;50.958;10.994;2024-01-06T02:26:36;97292.03;;;2.83;100.00
29907;BME280;16776;50.958;10.994;2024-01-06T02:29:03;97286.09;;;2.84;100.00
29907;BME280;16776;50.958;10.994;2024-01-06T02:31:29;97291.19;;;2.82;100.00
29907;BME280;16776;50.958;10.994;2024-01-06T02:33:56;97288.72;;;2.79;100.00
29907;BME280;16776;50.958;10.994;2024-01-06T02:36:22;97289.59;;;2.77;100.00
29907;BME280;16776;50.958;10.994;2024-01-06T02:38:49;97287.13;;;2.74;100.00
29907;BME280;16776;50.958;10.994;2024-01-06T02:41:17;97282.03;;;2.74;100.00
29907;BME280;16776;50.958;10.994;2024-01-06T02:43:43;97288.09;;;2.67;100.00
29907;BME280;16776;50.958;10.994;2024-01-06T02:46:10;97288.97;;;2.64;100.00
29907;BME280;16776;50.958;10.994;2024-01-06T02:48:37;97296.63;;;2.62;100.00
29907;BME280;16776;50.958;10.994;2024-01-06T02:51:03;97302.59;;;2.61;100.00
29907;BME280;16776;50.958;10.994;2024-01-06T02:53:31;97301.75;;;2.59;100.00
29907;BME280;16776;50.958;10.994;2024-01-06T02:55:57;97306.84;;;2.59;100.00
29907;BME280;16776;50.958;10.994;2024-01-06T02:58:25;97297.53;;;2.60;100.00
29907;BME280;16776;50.958;10.994;2024-01-06T03:00:51;97305.16;;;2.58;100.00
29907;BME280;16776;50.958;10.994;2024-01-06T03:03:18;97313.66;;;2.57;100.00
29907;BME280;16776;50.958;10.994;2024-01-06T03:05:45;97305.16;;;2.58;100.00
29907;BME280;16776;50.958;10.994;2024-01-06T03:08:14;97308.56;;;2.57;100.00
29907;BME280;16776;50.958;10.994;2024-01-06T03:10:40;97315.31;;;2.58;100.00
29907;BME280;16776;50.958;10.994;2024-01-06T03:13:07;97315.31;;;2.58;100.00
29907;BME280;16776;50.958;10.994;2024-01-06T03:15:35;97313.59;;;2.60;100.00
29907;BME280;16776;50.958;10.994;2024-01-06T03:18:02;97311.91;;;2.61;100.00
29907;BME280;16776;50.958;10.994;2024-01-06T03:20:28;97316.94;;;2.64;100.00
29907;BME280;16776;50.958;10.994;2024-01-06T03:22:55;97312.66;;;2.66;100.00
29907;BME280;16776;50.958;10.994;2024-01-06T03:25:22;97310.91;;;2.70;100.00
29907;BME280;16776;50.958;10.994;2024-01-06T03:27:48;97309.16;;;2.73;100.00
29907;BME280;16776;50.958;10.994;2024-01-06T03:30:15;97310.78;;;2.77;100.00
29907;BME280;16776;50.958;10.994;2024-01-06T03:32:43;97318.31;;;2.82;100.00
29907;BME280;16776;50.958;10.994;2024-01-06T03:35:09;97318.31;;;2.82;100.00
29907;BME280;16776;50.958;10.994;2024-01-06T03:37:36;97317.44;;;2.84;100.00
29907;BME280;16776;50.958;10.994;2024-01-06T03:40:03;97322.50;;;2.86;100.00
29907;BME280;16776;50.958;10.994;2024-01-06T03:42:30;97323.34;;;2.86;100.00
29907;BME280;16776;50.958;10.994;2024-01-06T03:44:57;97323.31;;;2.88;100.00
29907;BME280;16776;50.958;10.994;2024-01-06T03:47:23;97330.06;;;2.89;100.00
29907;BME280;16776;50.958;10.994;2024-01-06T03:49:51;97325.81;;;2.91;100.00
29907;BME280;16776;50.958;10.994;2024-01-06T03:52:18;97329.22;;;2.90;100.00
29907;BME280;16776;50.958;10.994;2024-01-06T03:54:45;97330.91;;;2.91;100.00
29907;BME280;16776;50.958;10.994;2024-01-06T03:57:11;97328.34;;;2.91;100.00
29907;BME280;16776;50.958;10.994;2024-01-06T03:59:38;97321.59;;;2.90;100.00
29907;BME280;16776;50.958;10.994;2024-01-06T04:02:04;97329.22;;;2.90;100.00
29907;BME280;16776;50.958;10.994;2024-01-06T04:04:31;97337.66;;;2.92;100.00
29907;BME280;16776;50.958;10.994;2024-01-06T04:06:59;97336.81;;;2.93;100.00
29907;BME280;16776;50.958;10.994;2024-01-06T04:11:56;97334.22;;;2.94;100.00
29907;BME280;16776;50.958;10.994;2024-01-06T04:14:23;97334.19;;;2.96;100.00
29907;BME280;16776;50.958;10.994;2024-01-06T04:16:49;97338.41;;;2.97;100.00
29907;BME280;16776;50.958;10.994;2024-01-06T04:19:17;97334.16;;;2.97;100.00
29907;BME280;16776;50.958;10.994;2024-01-06T04:21:45;97341.78;;;2.99;100.00
29907;BME280;16776;50.958;10.994;2024-01-06T04:24:14;97346.78;;;3.02;100.00
29907;BME280;16776;50.958;10.994;2024-01-06T04:26:41;97340.88;;;3.01;100.00
29907;BME280;16776;50.958;10.994;2024-01-06T04:29:10;97348.47;;;3.03;100.00
29907;BME280;16776;50.958;10.994;2024-01-06T04:31:37;97351.00;;;3.04;100.00
29907;BME280;16776;50.958;10.994;2024-01-06T04:34:03;97352.63;;;3.07;100.00
29907;BME280;16776;50.958;10.994;2024-01-06T04:36:30;97350.91;;;3.09;100.00
29907;BME280;16776;50.958;10.994;2024-01-06T04:38:56;97348.34;;;3.12;100.00
29907;BME280;16776;50.958;10.994;2024-01-06T04:41:24;97350.81;;;3.15;100.00
29907;BME280;16776;50.958;10.994;2024-01-06T04:43:51;97360.09;;;3.19;100.00
29907;BME280;16776;50.958;10.994;2024-01-06T04:46:17;97363.41;;;3.21;100.00
29907;BME280;16776;50.958;10.994;2024-01-06T04:48:44;97366.72;;;3.26;100.00
29907;BME280;16776;50.958;10.994;2024-01-06T04:51:10;97361.59;;;3.29;100.00
29907;BME280;16776;50.958;10.994;2024-01-06T04:53:37;97358.19;;;3.32;100.00
29907;BME280;16776;50.958;10.994;2024-01-06T04:56:04;97354.75;;;3.34;100.00
29907;BME280;16776;50.958;10.994;2024-01-06T04:58:32;97355.53;;;3.38;100.00
29907;BME280;16776;50.958;10.994;2024-01-06T05:01:00;97354.69;;;3.37;100.00
29907;BME280;16776;50.958;10.994;2024-01-06T05:03:27;97360.63;;;3.38;100.00
29907;BME280;16776;50.958;10.994;2024-01-06T05:05:54;97353.00;;;3.38;100.00
29907;BME280;16776;50.958;10.994;2024-01-06T05:08:20;97359.78;;;3.37;100.00
29907;BME280;16776;50.958;10.994;2024-01-06T05:10:47;97362.31;;;3.37;100.00
29907;BME280;16776;50.958;10.994;2024-01-06T05:13:14;97358.94;;;3.37;100.00
29907;BME280;16776;50.958;10.994;2024-01-06T05:15:42;97357.19;;;3.39;100.00
29907;BME280;16776;50.958;10.994;2024-01-06T05:18:09;97298.50;;;3.00;100.00
29907;BME280;16776;50.958;10.994;2024-01-06T05:20:35;97359.81;;;3.34;100.00
29907;BME280;16776;50.958;10.994;2024-01-06T05:23:02;97364.06;;;3.34;100.00
29907;BME280;16776;50.958;10.994;2024-01-06T05:25:29;97364.09;;;3.32;100.00
29907;BME280;16776;50.958;10.994;2024-01-06T05:27:55;97354.81;;;3.31;100.00
29907;BME280;16776;50.958;10.994;2024-01-06T05:30:22;97359.06;;;3.31;100.00
29907;BME280;16776;50.958;10.994;2024-01-06T05:32:50;97368.38;;;3.32;100.00
29907;BME280;16776;50.958;10.994;2024-01-06T05:35:16;97359.03;;;3.29;100.00
29907;BME280;16776;50.958;10.994;2024-01-06T05:37:43;97365.00;;;3.27;100.00
29907;BME280;16776;50.958;10.994;2024-01-06T05:40:10;97355.78;;;3.23;100.00
29907;BME280;16776;50.958;10.994;2024-01-06T05:42:36;97354.09;;;3.22;100.00
29907;BME280;16776;50.958;10.994;2024-01-06T05:45:04;97355.00;;;3.19;100.00
29907;BME280;16776;50.958;10.994;2024-01-06T05:47:30;97339.16;;;3.03;100.00
29907;BME280;16776;50.958;10.994;2024-01-06T05:49:59;97362.69;;;3.15;100.00
29907;BME280;16776;50.958;10.994;2024-01-06T05:52:25;97366.16;;;3.11;100.00
29907;BME280;16776;50.958;10.994;2024-01-06T05:54:52;97367.03;;;3.08;100.00
29907;BME280;16776;50.958;10.994;2024-01-06T05:57:18;97369.59;;;3.08;100.00
29907;BME280;16776;50.958;10.994;2024-01-06T05:59:45;97361.16;;;3.06;100.00
29907;BME280;16776;50.958;10.994;2024-01-06T06:02:11;97362.03;;;3.05;100.00
29907;BME280;16776;50.958;10.994;2024-01-06T06:04:39;97370.50;;;3.04;100.00
29907;BME280;16776;50.958;10.994;2024-01-06T06:07:06;97370.53;;;3.02;100.00
29907;BME280;16776;50.958;10.994;2024-01-06T06:09:33;97367.22;;;2.99;100.00
29907;BME280;16776;50.958;10.994;2024-01-06T06:12:00;97380.78;;;2.98;100.00
29907;BME280;16776;50.958;10.994;2024-01-06T06:14:27;97384.22;;;2.95;100.00
29907;BME280;16776;50.958;10.994;2024-01-06T06:16:53;97376.59;;;2.94;100.00
29907;BME280;16776;50.958;10.994;2024-01-06T06:19:20;97382.59;;;2.91;100.00
29907;BME280;16776;50.958;10.994;2024-01-06T06:21:46;97391.94;;;2.88;100.00
29907;BME280;16776;50.958;10.994;2024-01-06T06:24:14;97397.09;;;2.86;100.00
29907;BME280;16776;50.958;10.994;2024-01-06T06:26:41;97404.81;;;2.80;100.00
29907;BME280;16776;50.958;10.994;2024-01-06T06:29:07;97411.63;;;2.77;100.00
29907;BME280;16776;50.958;10.994;2024-01-06T06:31:34;97410.00;;;2.73;100.00
29907;BME280;16776;50.958;10.994;2024-01-06T06:34:01;97415.97;;;2.69;100.00
29907;BME280;16776;50.958;10.994;2024-01-06T06:36:27;97422.81;;;2.65;100.00
29907;BME280;16776;50.958;10.994;2024-01-06T06:38:54;97428.78;;;2.62;100.00
29907;BME280;16776;50.958;10.994;2024-01-06T06:41:24;97422.91;;;2.60;100.00
29907;BME280;16776;50.958;10.994;2024-01-06T06:43:51;97431.41;;;2.56;100.00
29907;BME280;16776;50.958;10.994;2024-01-06T06:46:17;97438.22;;;2.54;100.00
29907;BME280;16776;50.958;10.994;2024-01-06T06:48:44;97444.16;;;2.53;100.00
29907;BME280;16776;50.958;10.994;2024-01-06T06:51:11;97450.97;;;2.51;100.00
29907;BME280;16776;50.958;10.994;2024-01-06T06:53:37;97451.03;;;2.48;100.00
29907;BME280;16776;50.958;10.994;2024-01-06T06:56:04;97456.09;;;2.48;100.00
29907;BME280;16776;50.958;10.994;2024-01-06T06:58:33;97462.03;;;2.49;100.00
29907;BME280;16776;50.958;10.994;2024-01-06T07:01:00;97475.59;;;2.46;100.00
29907;BME280;16776;50.958;10.994;2024-01-06T07:03:26;97477.28;;;2.47;100.00
29907;BME280;16776;50.958;10.994;2024-01-06T07:05:53;97484.06;;;2.47;100.00
29907;BME280;16776;50.958;10.994;2024-01-06T07:08:19;97487.44;;;2.47;100.00
29907;BME280;16776;50.958;10.994;2024-01-06T07:10:46;97495.91;;;2.48;100.00
29907;BME280;16776;50.958;10.994;2024-01-06T07:13:12;97501.84;;;2.48;100.00
29907;BME280;16776;50.958;10.994;2024-01-06T07:15:40;97508.56;;;2.52;100.00
29907;BME280;16776;50.958;10.994;2024-01-06T07:18:07;97513.63;;;2.52;100.00
29907;BME280;16776;50.958;10.994;2024-01-06T07:20:34;97520.41;;;2.53;100.00
29907;BME280;16776;50.958;10.994;2024-01-06T07:23:01;97521.25;;;2.54;100.00
29907;BME280;16776;50.958;10.994;2024-01-06T07:25:28;97522.88;;;2.56;100.00
29907;BME280;16776;50.958;10.994;2024-01-06T07:27:55;97533.06;;;2.56;100.00
29907;BME280;16776;50.958;10.994;2024-01-06T07:30:22;97533.03;;;2.58;100.00
29907;BME280;16776;50.958;10.994;2024-01-06T07:32:50;97543.19;;;2.59;100.00
29907;BME280;16776;50.958;10.994;2024-01-06T07:35:17;97538.13;;;2.59;100.00
29907;BME280;16776;50.958;10.994;2024-01-06T07:37:43;97552.50;;;2.60;100.00
29907;BME280;16776;50.958;10.994;2024-01-06T07:40:11;97552.50;;;2.60;100.00
29907;BME280;16776;50.958;10.994;2024-01-06T07:42:38;97545.72;;;2.61;100.00
29907;BME280;16776;50.958;10.994;2024-01-06T07:45:06;97549.91;;;2.63;100.00
29907;BME280;16776;50.958;10.994;2024-01-06T07:47:32;97558.38;;;2.64;100.00
29907;BME280;16776;50.958;10.994;2024-01-06T07:50:00;97539.00;;;2.55;100.00
29907;BME280;16776;50.958;10.994;2024-01-06T07:52:28;97551.53;;;2.69;100.00
29907;BME280;16776;50.958;10.994;2024-01-06T07:54:55;97551.53;;;2.69;100.00
29907;BME280;16776;50.958;10.994;2024-01-06T07:57:22;97554.06;;;2.71;100.00
29907;BME280;16776;50.958;10.994;2024-01-06T07:59:48;97550.66;;;2.72;100.00
29907;BME280;16776;50.958;10.994;2024-01-06T08:02:16;97554.03;;;2.74;100.00
29907;BME280;16776;50.958;10.994;2024-01-06T08:04:42;97565.00;;;2.76;100.00
29907;BME280;16776;50.958;10.994;2024-01-06T08:07:11;97574.25;;;2.81;100.00
29907;BME280;16776;50.958;10.994;2024-01-06T08:09:38;97572.56;;;2.82;100.00
29907;BME280;16776;50.958;10.994;2024-01-06T08:12:06;97571.69;;;2.84;100.00
29907;BME280;16776;50.958;10.994;2024-01-06T08:14:32;97569.13;;;2.86;100.00
29907;BME280;16776;50.958;10.994;2024-01-06T08:16:59;97578.41;;;2.88;100.00
29907;BME280;16776;50.958;10.994;2024-01-06T08:19:25;97581.78;;;2.92;100.00
29907;BME280;16776;50.958;10.994;2024-01-06T08:21:53;97579.16;;;2.95;100.00
29907;BME280;16776;50.958;10.994;2024-01-06T08:24:21;97584.22;;;2.99;100.00
29907;BME280;16776;50.958;10.994;2024-01-06T08:26:48;97588.41;;;3.00;100.00
29907;BME280;16776;50.958;10.994;2024-01-06T08:29:14;97587.56;;;3.03;100.00
29907;BME280;16776;50.958;10.994;2024-01-06T08:31:41;97591.72;;;3.07;100.00
29907;BME280;16776;50.958;10.994;2024-01-06T08:34:08;97594.25;;;3.10;100.00
29907;BME280;16776;50.958;10.994;2024-01-06T08:36:34;97597.56;;;3.14;100.00
29907;BME280;16776;50.958;10.994;2024-01-06T08:39:01;97586.59;;;3.12;100.00
29907;BME280;16776;50.958;10.994;2024-01-06T08:41:29;97598.31;;;3.23;100.00
29907;BME280;16776;50.958;10.994;2024-01-06T08:43:56;97590.53;;;3.35;100.00
29907;BME280;16776;50.958;10.994;2024-01-06T08:46:22;97596.91;;;3.64;100.00
29907;BME280;16776;50.958;10.994;2024-01-06T08:48:49;97601.38;;;4.00;100.00
29907;BME280;16776;50.958;10.994;2024-01-06T08:51:16;97595.66;;;4.35;100.00
29907;BME280;16776;50.958;10.994;2024-01-06T08:53:42;97599.34;;;4.65;100.00
29907;BME280;16776;50.958;10.994;2024-01-06T08:56:09;97604.06;;;4.85;100.00
29907;BME280;16776;50.958;10.994;2024-01-06T08:58:37;97613.91;;;5.01;100.00
29907;BME280;16776;50.958;10.994;2024-01-06T09:01:04;97613.75;;;5.09;100.00
29907;BME280;16776;50.958;10.994;2024-01-06T09:03:30;97612.81;;;5.13;100.00
29907;BME280;16776;50.958;10.994;2024-01-06T09:05:57;97617.00;;;5.16;100.00
29907;BME280;16776;50.958;10.994;2024-01-06T09:08:24;97624.69;;;5.16;100.00
29907;BME280;16776;50.958;10.994;2024-01-06T09:10:50;97626.38;;;5.15;100.00
29907;BME280;16776;50.958;10.994;2024-01-06T09:13:20;97633.25;;;5.12;100.00
29907;BME280;16776;50.958;10.994;2024-01-06T09:15:48;97629.88;;;5.11;100.00
29907;BME280;16776;50.958;10.994;2024-01-06T09:18:16;97633.38;;;5.05;100.00
29907;BME280;16776;50.958;10.994;2024-01-06T09:20:43;97635.19;;;5.00;100.00
29907;BME280;16776;50.958;10.994;2024-01-06T09:23:10;97637.84;;;4.96;100.00
29907;BME280;16776;50.958;10.994;2024-01-06T09:25:36;97642.16;;;4.92;100.00
29907;BME280;16776;50.958;10.994;2024-01-06T09:28:05;97643.09;;;4.88;100.00
29907;BME280;16776;50.958;10.994;2024-01-06T09:30:32;97640.63;;;4.85;100.00
29907;BME280;16776;50.958;10.994;2024-01-06T09:33:00;97650.03;;;4.82;100.00
29907;BME280;16776;50.958;10.994;2024-01-06T09:35:26;97657.75;;;4.79;100.00
29907;BME280;16776;50.958;10.994;2024-01-06T09:37:53;97656.94;;;4.75;100.00
29907;BME280;16776;50.958;10.994;2024-01-06T09:40:22;97658.66;;;4.73;100.00
29907;BME280;16776;50.958;10.994;2024-01-06T09:42:49;97660.47;;;4.68;100.00
29907;BME280;16776;50.958;10.994;2024-01-06T09:45:15;97647.09;;;4.57;100.00
29907;BME280;16776;50.958;10.994;2024-01-06T09:47:42;97658.03;;;4.62;100.00
29907;BME280;16776;50.958;10.994;2024-01-06T09:50:14;97667.41;;;4.61;100.00
29907;BME280;16776;50.958;10.994;2024-01-06T09:52:45;97613.66;;;4.28;100.00
29907;BME280;16776;50.958;10.994;2024-01-06T09:55:22;97656.34;;;4.61;100.00
29907;BME280;16776;50.958;10.994;2024-01-06T09:57:49;97657.28;;;4.58;100.00
29907;BME280;16776;50.958;10.994;2024-01-06T10:00:17;97664.00;;;4.61;100.00
29907;BME280;16776;50.958;10.994;2024-01-06T10:02:45;97662.28;;;4.61;100.00
29907;BME280;16776;50.958;10.994;2024-01-06T10:05:13;97663.09;;;4.65;100.00
29907;BME280;16776;50.958;10.994;2024-01-06T10:07:41;97667.28;;;4.68;100.00
29907;BME280;16776;50.958;10.994;2024-01-06T10:10:09;97633.63;;;4.50;100.00
29907;BME280;16776;50.958;10.994;2024-01-06T10:12:37;97664.66;;;4.72;100.00
29907;BME280;16776;50.958;10.994;2024-01-06T10:15:04;97660.41;;;4.73;100.00
29907;BME280;16776;50.958;10.994;2024-01-06T10:17:31;97665.44;;;4.76;100.00
29907;BME280;16776;50.958;10.994;2024-01-06T10:19:59;97665.31;;;4.82;100.00
29907;BME280;16776;50.958;10.994;2024-01-06T10:22:27;97661.81;;;4.87;100.00
29907;BME280;16776;50.958;10.994;2024-01-06T10:24:54;97664.25;;;4.93;100.00
29907;BME280;16776;50.958;10.994;2024-01-06T10:27:21;97661.53;;;5.01;100.00
29907;BME280;16776;50.958;10.994;2024-01-06T10:29:48;97660.44;;;5.13;100.00
29907;BME280;16776;50.958;10.994;2024-01-06T10:32:14;97667.00;;;5.27;100.00
29907;BME280;16776;50.958;10.994;2024-01-06T10:34:42;97669.19;;;5.44;100.00
29907;BME280;16776;50.958;10.994;2024-01-06T10:37:08;97673.94;;;5.61;100.00
29907;BME280;16776;50.958;10.994;2024-01-06T10:39:36;97650.56;;;5.77;100.00
29907;BME280;16776;50.958;10.994;2024-01-06T10:42:04;97660.41;;;5.94;100.00
29907;BME280;16776;50.958;10.994;2024-01-06T10:44:33;97664.19;;;6.13;100.00
29907;BME280;16776;50.958;10.994;2024-01-06T10:47:00;97663.75;;;6.32;100.00
29907;BME280;16776;50.958;10.994;2024-01-06T10:49:30;97665.72;;;6.53;100.00
29907;BME280;16776;50.958;10.994;2024-01-06T10:51:58;97661.91;;;6.69;100.00
29907;BME280;16776;50.958;10.994;2024-01-06T10:54:26;97659.84;;;6.83;100.00
29907;BME280;16776;50.958;10.994;2024-01-06T10:56:56;97656.97;;;6.95;100.00
29907;BME280;16776;50.958;10.994;2024-01-06T10:59:23;97657.69;;;6.99;100.00
29907;BME280;16776;50.958;10.994;2024-01-06T11:01:52;97649.16;;;7.00;100.00
29907;BME280;16776;50.958;10.994;2024-01-06T11:04:22;97658.22;;;7.10;100.00
29907;BME280;16776;50.958;10.994;2024-01-06T11:06:49;97658.16;;;7.13;100.00
29907;BME280;16776;50.958;10.994;2024-01-06T11:09:21;97658.06;;;7.16;100.00
29907;BME280;16776;50.958;10.994;2024-01-06T11:11:49;97660.72;;;7.13;100.00
29907;BME280;16776;50.958;10.994;2024-01-06T11:14:22;97663.19;;;7.16;100.00
29907;BME280;16776;50.958;10.994;2024-01-06T11:16:50;97664.25;;;7.09;100.00
29907;BME280;16776;50.958;10.994;2024-01-06T11:19:43;97664.09;;;7.15;100.00
29907;BME280;16776;50.958;10.994;2024-01-06T11:22:21;97664.25;;;7.09;100.00
29907;BME280;16776;50.958;10.994;2024-01-06T11:24:50;97663.69;;;6.98;100.00
29907;BME280;16776;50.958;10.994;2024-01-06T11:27:17;97667.19;;;6.95;100.00
29907;BME280;16776;50.958;10.994;2024-01-06T11:29:45;97663.00;;;6.93;100.00
29907;BME280;16776;50.958;10.994;2024-01-06T11:32:19;97664.75;;;6.91;100.00
29907;BME280;16776;50.958;10.994;2024-01-06T11:34:49;97662.47;;;6.80;100.00
29907;BME280;16776;50.958;10.994;2024-01-06T11:37:18;97665.97;;;6.78;100.00
29907;BME280;16776;50.958;10.994;2024-01-06T11:39:44;97663.59;;;6.70;100.00
29907;BME280;16776;50.958;10.994;2024-01-06T11:42:11;97665.47;;;6.63;100.00
29907;BME280;16776;50.958;10.994;2024-01-06T11:44:39;97667.31;;;6.58;100.00
29907;BME280;16776;50.958;10.994;2024-01-06T11:47:08;97674.22;;;6.55;100.00
29907;BME280;16776;50.958;10.994;2024-01-06T11:49:37;97667.66;;;6.45;100.00
29907;BME280;16776;50.958;10.994;2024-01-06T11:52:04;97669.53;;;6.38;100.00
29907;BME280;16776;50.958;10.994;2024-01-06T11:54:31;97666.31;;;6.30;100.00
29907;BME280;16776;50.958;10.994;2024-01-06T11:56:58;97663.06;;;6.25;100.00
29907;BME280;16776;50.958;10.994;2024-01-06T11:59:25;97663.13;;;6.20;100.00
29907;BME280;16776;50.958;10.994;2024-01-06T12:01:52;97667.50;;;6.17;100.00
29907;BME280;16776;50.958;10.994;2024-01-06T12:04:20;97661.59;;;6.15;100.00
29907;BME280;16776;50.958;10.994;2024-01-06T12:06:47;97670.22;;;6.11;100.00
29907;BME280;16776;50.958;10.994;2024-01-06T12:09:16;97664.22;;;6.12;100.00
29907;BME280;16776;50.958;10.994;2024-01-06T12:11:44;97665.25;;;6.05;100.00
29907;BME280;16776;50.958;10.994;2024-01-06T12:14:12;97652.75;;;5.93;100.00
29907;BME280;16776;50.958;10.994;2024-01-06T12:16:38;97666.22;;;6.01;100.00
29907;BME280;16776;50.958;10.994;2024-01-06T12:19:05;97660.28;;;5.99;100.00
29907;BME280;16776;50.958;10.994;2024-01-06T12:21:33;97670.50;;;5.99;100.00
29907;BME280;16776;50.958;10.994;2024-01-06T12:24:27;97670.34;;;6.05;100.00
29907;BME280;16776;50.958;10.994;2024-01-06T12:26:55;97666.28;;;5.96;100.00
29907;BME280;16776;50.958;10.994;2024-01-06T12:29:22;97667.16;;;5.95;100.00
29907;BME280;16776;50.958;10.994;2024-01-06T12:31:48;97671.44;;;5.95;100.00
29907;BME280;16776;50.958;10.994;2024-01-06T12:34:15;97671.41;;;5.96;100.00
29907;BME280;16776;50.958;10.994;2024-01-06T12:36:43;97671.31;;;6.01;100.00
29907;BME280;16776;50.958;10.994;2024-01-06T12:39:12;97674.69;;;6.01;100.00
29907;BME280;16776;50.958;10.994;2024-01-06T12:41:40;97671.22;;;6.04;100.00
29907;BME280;16776;50.958;10.994;2024-01-06T12:44:07;97676.28;;;6.07;100.00
29907;BME280;16776;50.958;10.994;2024-01-06T12:46:34;97675.34;;;6.09;100.00
29907;BME280;16776;50.958;10.994;2024-01-06T12:49:01;97673.59;;;6.11;100.00
29907;BME280;16776;50.958;10.994;2024-01-06T12:51:28;97669.25;;;6.15;100.00
29907;BME280;16776;50.958;10.994;2024-01-06T12:53:56;97673.38;;;6.20;100.00